Nearby METAR Reports

 

KVCT - Victoria, Texas, USA
Distance from station: E 12mi, 20km
Updated: 04/20/2019 3:51am
Clear
Clear
 Wind from calm
Wind: Calm
Temperature: 52°F , 11°C
Dew Point: 46°F , 8°C
Humidity: 82%
Barometer: 30.08 inHg , 1018.6 hPa
Clouds: Clear
Visibility: 10 miles , 16 km
2019/04/20 08:51 KVCT 200851Z AUTO 00000KT 10SM CLR 11/08 A3008 RMK AO2 SLP185 T01060083 56007 $
KPKV - Port Lavaca, Texas, USA
Distance from station: ESE 31mi, 50km
Updated: 04/20/2019 3:55am
Clear
Clear
 Wind from calm
Wind: Calm
Temperature: 57°F , 14°C
Dew Point: 48°F , 9°C
Humidity: 72%
Barometer: 30.08 inHg , 1018.6 hPa
Clouds: Clear
Visibility: 10 miles , 16 km
2019/04/20 08:55 KPKV 200855Z AUTO 00000KT 10SM CLR 14/09 A3008 RMK AO2 T01400090
 
KT20 - Gonzales Muni, Texas, USA
Distance from station: NNW 50mi, 81km
Updated: 04/20/2019 3:55am
Clear
Clear
 Wind from SSW
Wind: SSW 3 mph , 6 km/h
Temperature: 50°F , 10°C
Dew Point: 46°F , 8°C
Humidity: 88%
Barometer: 30.09 inHg , 1019 hPa
Clouds: Clear
Visibility: 10 miles , 16 km
2019/04/20 08:55 KT20 200855Z AUTO 21003KT 10SM CLR 10/08 A3009 RMK AO2 T00960076
KBEA - Beeville Muni, Texas, USA
Distance from station: SW 51mi, 83km
Updated: 04/20/2019 3:55am
Clear
Clear
 Wind from calm
Wind: Calm
Temperature: 57°F , 14°C
Dew Point: 45°F , 7°C
Humidity: 63%
Barometer: 30.09 inHg , 1019 hPa
Clouds: Clear
Visibility: 10 miles , 16 km
2019/04/20 08:55 KBEA 200855Z AUTO 00000KT 10SM CLR 14/07 A3009 RMK AO2 T01360070
 
KRKP - Rockport, Texas, USA
Distance from station: S 53mi, 86km
Updated: 04/20/2019 3:53am
Clear
Clear
 Wind from E
Wind: E 6 mph , 9 km/h
Temperature: 61°F , 16°C
Dew Point: 50°F , 10°C
Humidity: 68%
Barometer: 30.09 inHg , 1019 hPa
Clouds: Clear
Visibility: 10 miles , 16 km
2019/04/20 08:53 KRKP 200853Z AUTO 10005KT 10SM CLR 16/10 A3009 RMK AO2 SLP190 T01610100 55002
KPSX - Palacios, Texas, USA
Distance from station: E 55mi, 88km
Updated: 04/20/2019 3:53am
Clear
Clear
 Wind from calm
Wind: Calm
Temperature: 55°F , 13°C
Dew Point: 45°F , 7°C
Humidity: 67%
Barometer: 30.07 inHg , 1018.3 hPa
Clouds: Clear
Visibility: 10 miles , 16 km
2019/04/20 08:53 KPSX 200853Z AUTO 00000KT 10SM CLR 13/07 A3007 RMK AO2 SLP181 T01280072 56012
 
KTFP - Ingleside/Tp Mcc, Texas, USA
Distance from station: S 65mi, 104km
Updated: 04/20/2019 3:55am
Clear
Clear
 Wind from calm
Wind: Calm
Temperature: 59°F , 15°C
Dew Point: 52°F , 11°C
Humidity: 77%
Barometer: 30.09 inHg , 1019 hPa
Clouds: Clear
Visibility: 10 miles , 16 km
2019/04/20 08:55 KTFP 200855Z AUTO 00000KT 10SM CLR 15/11 A3009 RMK AO2 T01540109 PNO
K66R - Columbus, Texas, USA
Distance from station: NE 66mi, 106km
Updated: 04/20/2019 3:55am
Clear
Clear
 Wind from calm
Wind: Calm
Temperature: 45°F , 7°C
Dew Point: 39°F , 4°C
Humidity: 81%
Barometer: 30.09 inHg , 1019 hPa
Clouds: Clear
Visibility: 10 miles , 16 km
2019/04/20 08:55 K66R 200855Z AUTO 00000KT 10SM CLR 07/04 A3009 RMK AO2 T00740044
 
KARM - Wharton, Texas, USA
Distance from station: ENE 66mi, 106km
Updated: 04/20/2019 3:55am
Clear
Clear
 Wind from calm
Wind: Calm
Temperature: 46°F , 8°C
Dew Point: 45°F , 7°C
Humidity: 93%
Barometer: 30.08 inHg , 1018.6 hPa
Clouds: Clear
Visibility: 10 miles , 16 km
2019/04/20 08:55 KARM 200855Z AUTO 00000KT 10SM CLR 08/07 A3008 RMK AO2 T00830065
KRAS - Port Aransas, Texas, USA
Distance from station: S 71mi, 115km
Updated: 04/20/2019 3:55am
Clear
Clear
 Wind from ESE
Wind: ESE 7 mph , 11 km/h
Temperature: 68°F , 20°C
Dew Point: 54°F , 12°C
Humidity: 60%
Barometer: 30.11 inHg , 1019.6 hPa
Clouds: Clear
Visibility: 10 miles , 16 km
2019/04/20 08:55 KRAS 200855Z AUTO 11006KT 10SM CLR 20/12 A3011 RMK AO2 T01990120
 
KELA - Eagle Lake, Texas, USA
Distance from station: NE 72mi, 115km
Updated: 04/20/2019 3:55am
Clear
Clear
 Wind from calm
Wind: Calm
Temperature: 48°F , 9°C
Dew Point: 45°F , 7°C
Humidity: 87%
Barometer: 30.07 inHg , 1018.3 hPa
Clouds: Clear
Visibility: 10 miles , 16 km
2019/04/20 08:55 KELA 200855Z AUTO 00000KT 10SM CLR 09/07 A3007 RMK AO2 T00900071
K3T5 - La Grange, Texas, USA
Distance from station: N 73mi, 118km
Updated: 04/20/2019 3:55am
Clear
Clear
 Wind from calm
Wind: Calm
Temperature: 52°F , 11°C
Dew Point: 46°F , 8°C
Humidity: 82%
Barometer: 30.06 inHg , 1017.9 hPa
Clouds: Clear
Visibility: 10 miles , 16 km
2019/04/20 08:55 K3T5 200855Z AUTO 00000KT 10SM CLR 11/08 A3006 RMK AO2 T01050080
 
KBYY - Bay City, Texas, USA
Distance from station: E 77mi, 124km
Updated: 04/20/2019 3:55am
Clear
Clear
 Wind from calm
Wind: Calm
Temperature: 48°F , 9°C
Dew Point: 45°F , 7°C
Humidity: 87%
Barometer: 30.08 inHg , 1018.6 hPa
Clouds: Clear
Visibility: 10 miles , 16 km
2019/04/20 08:55 KBYY 200855Z AUTO 00000KT 10SM CLR 09/07 A3008 RMK AO2 T00890073
KCRP - Corpus Christi, Texas, USA
Distance from station: SSW 78mi, 126km
Updated: 04/20/2019 3:51am
Clear
Clear
 Wind from WSW
Wind: WSW 5 mph , 7 km/h
Temperature: 57°F , 14°C
Dew Point: 54°F , 12°C
Humidity: 88%
Barometer: 30.10 inHg , 1019.3 hPa
Clouds: Clear
Visibility: 10 miles , 16 km
2019/04/20 08:51 KCRP 200851Z 25004KT 10SM CLR 14/12 A3010 RMK AO2 SLP191 T01390117 51004 $
 
KNGP - C. Christi Nas, Texas, USA
Distance from station: S 81mi, 130km
Updated: 04/20/2019 3:56am
Clear
Clear
 Wind from ESE
Wind: ESE 7 mph , 11 km/h
Temperature: 66°F , 19°C
Dew Point: 57°F , 14°C
Humidity: 73%
Barometer: 30.09 inHg , 1019 hPa
Clouds: Clear
Visibility: 10 miles , 16 km
2019/04/20 08:56 KNGP 200856Z AUTO 11006KT 10SM CLR 19/14 A3009 RMK AO2 SLP189 T01940144 51002 $
KRBO - Robstown/Nueces, Texas, USA
Distance from station: SSW 81mi, 130km
Updated: 12/12/2018 2:55pm
NOT Current
Clear
Clear
 Wind from SSE
Wind: SSE 15 mph , 24 km/h
Temperature: 72°F , 22°C
Dew Point: 63°F , 17°C
Humidity: 73%
Barometer: 29.91 inHg , 1012.9 hPa
Clouds: Clear
Visibility: 10 miles , 16 km
2018/12/12 20:55 KRBO 122055Z AUTO 16013KT 10SM CLR 22/17 A2991 RMK AO2 T02170165
 
KBAZ - New Braunfels, Texas, USA
Distance from station: NW 81mi, 131km
Updated: 04/20/2019 3:51am
Clear
Clear
 Wind from WSW
Wind: WSW 7 mph , 11 km/h
Temperature: 48°F , 9°C
Wind Chill: 45°F , 7°C
Dew Point: 45°F , 7°C
Humidity: 87%
Barometer: 30.09 inHg , 1019 hPa
Clouds: Clear
Visibility: 10 miles , 16 km
2019/04/20 08:51 KBAZ 200851Z AUTO 25006KT 10SM CLR 09/07 A3009 RMK AO2 SLP184 T00940067 53000
KRND - Randolph Afb, Texas, USA
Distance from station: NW 82mi, 132km
Updated: 04/20/2019 3:56am
Clear
Clear
 Wind from calm
Wind: Calm
Temperature: 50°F , 10°C
Dew Point: 45°F , 7°C
Humidity: 82%
Barometer: 30.10 inHg , 1019.3 hPa
Clouds: Clear
Visibility: 10 miles , 16 km
2019/04/20 08:56 KRND 200856Z AUTO 00000KT 10SM CLR 10/07 A3010 RMK AO2 SLP190 T00980070 58001
 
KHYI - San Marcos, Texas, USA
Distance from station: NNW 84mi, 135km
Updated: 04/20/2019 3:56am
Clear
Clear
 Wind from NW
Wind: NW 3 mph , 6 km/h
Temperature: 46°F , 8°C
Dew Point: 45°F , 7°C
Humidity: 93%
Barometer: 30.10 inHg , 1019.3 hPa
Clouds: Clear
Visibility: 10 miles , 16 km
2019/04/20 08:56 KHYI 200856Z AUTO 32003KT 10SM CLR 08/07 A3010 RMK AO2 SLP187 T00830067 56004
KPEZ - Pleasanton Muni, Texas, USA
Distance from station: W 84mi, 135km
Updated: 04/20/2019 3:55am
Clear
Clear
 Wind from calm
Wind: Calm
Temperature: 48°F , 9°C
Dew Point: 45°F , 7°C
Humidity: 87%
Barometer: 30.11 inHg , 1019.6 hPa
Clouds: Clear
Visibility: 10 miles , 16 km
2019/04/20 08:55 KPEZ 200855Z AUTO 00000KT 10SM CLR 09/07 A3011 RMK AO2 T00910066